sensor_id;sensor_type;location;lat;lon;timestamp;temperature;humidity
71396;DHT22;59888;55.814;37.132;2023-03-01T00:02:20;-3.21;51.28
71396;DHT22;59888;55.814;37.132;2023-03-01T00:04:46;-3.22;51.65
71396;DHT22;59888;55.814;37.132;2023-03-01T00:07:12;-3.26;51.39
71396;DHT22;59888;55.814;37.132;2023-03-01T00:09:38;-3.30;51.51
71396;DHT22;59888;55.814;37.132;2023-03-01T00:12:06;-3.35;51.33
71396;DHT22;59888;55.814;37.132;2023-03-01T00:14:32;-3.36;51.95
71396;DHT22;59888;55.814;37.132;2023-03-01T00:16:58;-3.40;51.49
71396;DHT22;59888;55.814;37.132;2023-03-01T00:19:24;-3.40;52.17
71396;DHT22;59888;55.814;37.132;2023-03-01T00:21:50;-3.41;52.00
71396;DHT22;59888;55.814;37.132;2023-03-01T00:24:16;-3.47;51.37
71396;DHT22;59888;55.814;37.132;2023-03-01T00:26:42;-3.48;52.69
71396;DHT22;59888;55.814;37.132;2023-03-01T00:29:08;-3.50;52.82
71396;DHT22;59888;55.814;37.132;2023-03-01T00:31:34;-3.49;52.13
71396;DHT22;59888;55.814;37.132;2023-03-01T00:34:02;-3.52;53.00
71396;DHT22;59888;55.814;37.132;2023-03-01T00:36:31;-3.55;52.40
71396;DHT22;59888;55.814;37.132;2023-03-01T00:38:59;-3.58;52.32
71396;DHT22;59888;55.814;37.132;2023-03-01T00:41:25;-3.58;52.43
71396;DHT22;59888;55.814;37.132;2023-03-01T00:43:56;-3.60;52.89
71396;DHT22;59888;55.814;37.132;2023-03-01T00:46:24;-3.60;52.87
71396;DHT22;59888;55.814;37.132;2023-03-01T00:48:50;-3.60;52.27
71396;DHT22;59888;55.814;37.132;2023-03-01T00:51:24;-3.58;53.04
71396;DHT22;59888;55.814;37.132;2023-03-01T00:53:52;-3.60;53.75
71396;DHT22;59888;55.814;37.132;2023-03-01T00:56:19;-3.64;52.69
71396;DHT22;59888;55.814;37.132;2023-03-01T00:58:45;-3.64;53.04
71396;DHT22;59888;55.814;37.132;2023-03-01T01:01:17;-3.66;53.19
71396;DHT22;59888;55.814;37.132;2023-03-01T01:04:04;-3.69;52.98
71396;DHT22;59888;55.814;37.132;2023-03-01T01:06:34;-3.77;52.40
71396;DHT22;59888;55.814;37.132;2023-03-01T01:09:02;-3.80;53.04
71396;DHT22;59888;55.814;37.132;2023-03-01T01:11:29;-3.81;53.42
71396;DHT22;59888;55.814;37.132;2023-03-01T01:13:56;-3.82;53.52
71396;DHT22;59888;55.814;37.132;2023-03-01T01:16:24;-3.84;53.33
71396;DHT22;59888;55.814;37.132;2023-03-01T01:18:50;-3.83;54.20
71396;DHT22;59888;55.814;37.132;2023-03-01T01:21:22;-3.84;54.28
71396;DHT22;59888;55.814;37.132;2023-03-01T01:23:48;-3.87;54.10
71396;DHT22;59888;55.814;37.132;2023-03-01T01:26:21;-3.86;54.33
71396;DHT22;59888;55.814;37.132;2023-03-01T01:28:49;-3.84;54.67
71396;DHT22;59888;55.814;37.132;2023-03-01T01:31:16;-3.87;54.46
71396;DHT22;59888;55.814;37.132;2023-03-01T01:33:42;-3.84;54.88
71396;DHT22;59888;55.814;37.132;2023-03-01T01:36:08;-3.86;53.86
71396;DHT22;59888;55.814;37.132;2023-03-01T01:38:35;-3.83;53.97
71396;DHT22;59888;55.814;37.132;2023-03-01T01:41:03;-3.82;54.14
71396;DHT22;59888;55.814;37.132;2023-03-01T01:46:02;-3.91;54.23
71396;DHT22;59888;55.814;37.132;2023-03-01T01:48:37;-3.93;54.23
71396;DHT22;59888;55.814;37.132;2023-03-01T01:51:09;-3.90;54.80
71396;DHT22;59888;55.814;37.132;2023-03-01T01:53:37;-3.92;54.72
71396;DHT22;59888;55.814;37.132;2023-03-01T01:56:07;-3.93;54.47
71396;DHT22;59888;55.814;37.132;2023-03-01T01:58:34;-3.92;54.75
71396;DHT22;59888;55.814;37.132;2023-03-01T02:01:01;-3.95;54.26
71396;DHT22;59888;55.814;37.132;2023-03-01T02:03:31;-3.94;54.91
71396;DHT22;59888;55.814;37.132;2023-03-01T02:08:59;-3.96;55.33
71396;DHT22;59888;55.814;37.132;2023-03-01T02:11:27;-4.02;55.42
71396;DHT22;59888;55.814;37.132;2023-03-01T02:13:55;-4.05;55.66
71396;DHT22;59888;55.814;37.132;2023-03-01T02:16:21;-4.10;55.57
71396;DHT22;59888;55.814;37.132;2023-03-01T02:18:47;-4.15;55.58
71396;DHT22;59888;55.814;37.132;2023-03-01T02:26:55;-4.23;55.99
71396;DHT22;59888;55.814;37.132;2023-03-01T02:29:25;-4.19;56.13
71396;DHT22;59888;55.814;37.132;2023-03-01T02:31:54;-4.13;56.19
71396;DHT22;59888;55.814;37.132;2023-03-01T02:34:23;-4.12;56.13
71396;DHT22;59888;55.814;37.132;2023-03-01T02:39:32;-4.19;56.32
71396;DHT22;59888;55.814;37.132;2023-03-01T02:41:59;-4.22;56.21
71396;DHT22;59888;55.814;37.132;2023-03-01T02:44:25;-4.28;56.42
71396;DHT22;59888;55.814;37.132;2023-03-01T02:46:54;-4.30;56.71
71396;DHT22;59888;55.814;37.132;2023-03-01T02:49:29;-4.32;56.59
71396;DHT22;59888;55.814;37.132;2023-03-01T02:54:57;-4.36;56.78
71396;DHT22;59888;55.814;37.132;2023-03-01T02:57:27;-4.40;56.84
71396;DHT22;59888;55.814;37.132;2023-03-01T02:59:59;-4.44;56.93
71396;DHT22;59888;55.814;37.132;2023-03-01T03:02:30;-4.49;57.08
71396;DHT22;59888;55.814;37.132;2023-03-01T03:07:36;-4.58;57.35
71396;DHT22;59888;55.814;37.132;2023-03-01T03:10:06;-4.58;57.51
71396;DHT22;59888;55.814;37.132;2023-03-01T03:12:33;-4.61;57.32
71396;DHT22;59888;55.814;37.132;2023-03-01T03:14:59;-4.64;57.44
71396;DHT22;59888;55.814;37.132;2023-03-01T03:17:25;-4.67;57.58
71396;DHT22;59888;55.814;37.132;2023-03-01T03:19:51;-4.72;57.64
71396;DHT22;59888;55.814;37.132;2023-03-01T03:22:17;-4.75;57.73
71396;DHT22;59888;55.814;37.132;2023-03-01T03:24:45;-4.75;57.75
71396;DHT22;59888;55.814;37.132;2023-03-01T03:27:13;-4.78;57.76
71396;DHT22;59888;55.814;37.132;2023-03-01T03:29:39;-4.81;57.79
71396;DHT22;59888;55.814;37.132;2023-03-01T03:32:05;-4.83;57.90
71396;DHT22;59888;55.814;37.132;2023-03-01T03:34:31;-4.86;58.03
71396;DHT22;59888;55.814;37.132;2023-03-01T03:36:57;-4.84;57.95
71396;DHT22;59888;55.814;37.132;2023-03-01T03:39:26;-4.80;57.91
71396;DHT22;59888;55.814;37.132;2023-03-01T03:42:00;-4.82;57.92
71396;DHT22;59888;55.814;37.132;2023-03-01T03:44:27;-4.84;57.97
71396;DHT22;59888;55.814;37.132;2023-03-01T03:46:52;-4.86;57.94
71396;DHT22;59888;55.814;37.132;2023-03-01T03:49:18;-4.89;58.10
71396;DHT22;59888;55.814;37.132;2023-03-01T03:51:45;-4.90;58.16
71396;DHT22;59888;55.814;37.132;2023-03-01T03:54:11;-4.85;58.14
71396;DHT22;59888;55.814;37.132;2023-03-01T03:56:37;-4.84;58.15
71396;DHT22;59888;55.814;37.132;2023-03-01T03:59:04;-4.82;58.16
71396;DHT22;59888;55.814;37.132;2023-03-01T04:01:31;-4.81;58.13
71396;DHT22;59888;55.814;37.132;2023-03-01T04:03:57;-4.81;58.10
71396;DHT22;59888;55.814;37.132;2023-03-01T04:06:29;-4.84;58.04
71396;DHT22;59888;55.814;37.132;2023-03-01T04:08:55;-4.86;58.16
71396;DHT22;59888;55.814;37.132;2023-03-01T04:11:23;-4.84;58.19
71396;DHT22;59888;55.814;37.132;2023-03-01T04:13:54;-4.81;58.13
71396;DHT22;59888;55.814;37.132;2023-03-01T04:16:20;-4.81;58.17
71396;DHT22;59888;55.814;37.132;2023-03-01T04:18:46;-4.81;58.19
71396;DHT22;59888;55.814;37.132;2023-03-01T04:21:13;-4.82;58.18
71396;DHT22;59888;55.814;37.132;2023-03-01T04:23:39;-4.82;58.14
71396;DHT22;59888;55.814;37.132;2023-03-01T04:26:07;-4.82;58.04
71396;DHT22;59888;55.814;37.132;2023-03-01T04:28:40;-4.79;58.13
71396;DHT22;59888;55.814;37.132;2023-03-01T04:31:11;-4.79;58.09
71396;DHT22;59888;55.814;37.132;2023-03-01T04:33:49;-4.73;58.22
71396;DHT22;59888;55.814;37.132;2023-03-01T04:36:18;-4.72;58.05
71396;DHT22;59888;55.814;37.132;2023-03-01T04:38:44;-4.69;57.95
71396;DHT22;59888;55.814;37.132;2023-03-01T04:41:13;-4.69;58.04
71396;DHT22;59888;55.814;37.132;2023-03-01T04:43:39;-4.70;58.03
71396;DHT22;59888;55.814;37.132;2023-03-01T04:46:10;-4.68;57.93
71396;DHT22;59888;55.814;37.132;2023-03-01T04:48:39;-4.72;57.79
71396;DHT22;59888;55.814;37.132;2023-03-01T04:51:06;-4.73;57.77
71396;DHT22;59888;55.814;37.132;2023-03-01T04:53:33;-4.68;58.03
71396;DHT22;59888;55.814;37.132;2023-03-01T04:56:02;-4.65;57.95
71396;DHT22;59888;55.814;37.132;2023-03-01T04:58:28;-4.64;57.94
71396;DHT22;59888;55.814;37.132;2023-03-01T05:00:55;-4.57;57.95
71396;DHT22;59888;55.814;37.132;2023-03-01T05:03:21;-4.52;57.74
71396;DHT22;59888;55.814;37.132;2023-03-01T05:05:49;-4.51;57.64
71396;DHT22;59888;55.814;37.132;2023-03-01T05:08:15;-4.55;57.43
71396;DHT22;59888;55.814;37.132;2023-03-01T05:10:47;-4.55;57.68
71396;DHT22;59888;55.814;37.132;2023-03-01T05:13:14;-4.55;57.64
71396;DHT22;59888;55.814;37.132;2023-03-01T05:16:00;-4.56;57.48
71396;DHT22;59888;55.814;37.132;2023-03-01T05:18:28;-4.56;57.48
71396;DHT22;59888;55.814;37.132;2023-03-01T05:20:55;-4.52;57.47
71396;DHT22;59888;55.814;37.132;2023-03-01T05:23:24;-4.45;57.55
71396;DHT22;59888;55.814;37.132;2023-03-01T05:25:50;-4.34;57.58
71396;DHT22;59888;55.814;37.132;2023-03-01T05:28:19;-4.21;57.35
71396;DHT22;59888;55.814;37.132;2023-03-01T05:30:46;-4.15;57.02
71396;DHT22;59888;55.814;37.132;2023-03-01T05:33:12;-4.09;57.12
71396;DHT22;59888;55.814;37.132;2023-03-01T05:35:43;-4.04;56.74
71396;DHT22;59888;55.814;37.132;2023-03-01T05:38:11;-3.91;56.89
71396;DHT22;59888;55.814;37.132;2023-03-01T05:40:45;-3.87;56.52
71396;DHT22;59888;55.814;37.132;2023-03-01T05:43:12;-3.82;56.55
71396;DHT22;59888;55.814;37.132;2023-03-01T05:45:39;-3.77;56.56
71396;DHT22;59888;55.814;37.132;2023-03-01T05:48:06;-3.80;56.40
71396;DHT22;59888;55.814;37.132;2023-03-01T05:50:35;-3.70;56.61
71396;DHT22;59888;55.814;37.132;2023-03-01T05:53:03;-3.58;56.48
71396;DHT22;59888;55.814;37.132;2023-03-01T05:55:31;-3.54;56.14
71396;DHT22;59888;55.814;37.132;2023-03-01T05:57:59;-3.58;55.29
71396;DHT22;59888;55.814;37.132;2023-03-01T06:00:26;-3.57;55.57
71396;DHT22;59888;55.814;37.132;2023-03-01T06:02:53;-3.48;55.43
71396;DHT22;59888;55.814;37.132;2023-03-01T06:05:20;-3.42;55.63
71396;DHT22;59888;55.814;37.132;2023-03-01T06:07:47;-3.35;55.53
71396;DHT22;59888;55.814;37.132;2023-03-01T06:10:14;-3.31;55.35
71396;DHT22;59888;55.814;37.132;2023-03-01T06:12:41;-3.28;55.28
71396;DHT22;59888;55.814;37.132;2023-03-01T06:15:08;-3.34;54.15
71396;DHT22;59888;55.814;37.132;2023-03-01T06:17:36;-3.27;55.20
71396;DHT22;59888;55.814;37.132;2023-03-01T06:20:09;-3.27;55.16
71396;DHT22;59888;55.814;37.132;2023-03-01T06:22:37;-3.21;55.18
71396;DHT22;59888;55.814;37.132;2023-03-01T06:25:04;-3.11;55.06
71396;DHT22;59888;55.814;37.132;2023-03-01T06:27:30;-3.02;54.95
71396;DHT22;59888;55.814;37.132;2023-03-01T06:29:56;-3.02;54.42
71396;DHT22;59888;55.814;37.132;2023-03-01T06:32:22;-3.09;54.39
71396;DHT22;59888;55.814;37.132;2023-03-01T06:34:48;-3.01;54.63
71396;DHT22;59888;55.814;37.132;2023-03-01T06:37:14;-2.96;54.39
71396;DHT22;59888;55.814;37.132;2023-03-01T06:39:39;-2.90;54.10
71396;DHT22;59888;55.814;37.132;2023-03-01T06:42:07;-2.93;54.48
71396;DHT22;59888;55.814;37.132;2023-03-01T06:44:33;-2.87;54.62
71396;DHT22;59888;55.814;37.132;2023-03-01T06:46:59;-2.82;54.34
71396;DHT22;59888;55.814;37.132;2023-03-01T06:49:24;-2.65;54.46
71396;DHT22;59888;55.814;37.132;2023-03-01T06:51:50;-2.52;54.09
71396;DHT22;59888;55.814;37.132;2023-03-01T06:54:17;-2.36;53.66
71396;DHT22;59888;55.814;37.132;2023-03-01T06:56:46;-2.14;53.67
71396;DHT22;59888;55.814;37.132;2023-03-01T06:59:12;-2.13;53.18
71396;DHT22;59888;55.814;37.132;2023-03-01T07:01:37;-1.97;53.14
71396;DHT22;59888;55.814;37.132;2023-03-01T07:04:04;-1.88;51.70
71396;DHT22;59888;55.814;37.132;2023-03-01T07:06:30;-1.92;52.39
71396;DHT22;59888;55.814;37.132;2023-03-01T07:08:56;-1.99;52.40
71396;DHT22;59888;55.814;37.132;2023-03-01T07:11:22;-1.97;52.83
71396;DHT22;59888;55.814;37.132;2023-03-01T07:13:48;-1.87;52.59
71396;DHT22;59888;55.814;37.132;2023-03-01T07:16:14;-1.74;52.05
71396;DHT22;59888;55.814;37.132;2023-03-01T07:18:41;-1.68;52.43
71396;DHT22;59888;55.814;37.132;2023-03-01T07:21:08;-1.58;52.34
71396;DHT22;59888;55.814;37.132;2023-03-01T07:23:34;-1.44;52.14
71396;DHT22;59888;55.814;37.132;2023-03-01T07:26:01;-1.30;52.07
71396;DHT22;59888;55.814;37.132;2023-03-01T07:28:27;-1.16;52.21
71396;DHT22;59888;55.814;37.132;2023-03-01T07:30:53;-1.03;50.69
71396;DHT22;59888;55.814;37.132;2023-03-01T07:33:20;-0.98;50.61
71396;DHT22;59888;55.814;37.132;2023-03-01T07:35:46;-0.82;50.82
71396;DHT22;59888;55.814;37.132;2023-03-01T07:38:12;-0.71;50.53
71396;DHT22;59888;55.814;37.132;2023-03-01T07:40:37;-0.82;48.80
71396;DHT22;59888;55.814;37.132;2023-03-01T07:43:03;-0.83;49.83
71396;DHT22;59888;55.814;37.132;2023-03-01T07:45:29;-0.67;50.66
71396;DHT22;59888;55.814;37.132;2023-03-01T07:47:55;-0.46;51.12
71396;DHT22;59888;55.814;37.132;2023-03-01T07:50:22;-0.28;50.92
71396;DHT22;59888;55.814;37.132;2023-03-01T07:52:49;-0.03;50.40
71396;DHT22;59888;55.814;37.132;2023-03-01T07:55:15;0.22;50.19
71396;DHT22;59888;55.814;37.132;2023-03-01T07:57:42;0.37;50.58
71396;DHT22;59888;55.814;37.132;2023-03-01T08:00:10;0.42;48.68
71396;DHT22;59888;55.814;37.132;2023-03-01T08:02:39;0.39;49.23
71396;DHT22;59888;55.814;37.132;2023-03-01T08:05:09;0.55;50.02
71396;DHT22;59888;55.814;37.132;2023-03-01T08:07:35;0.52;48.33
71396;DHT22;59888;55.814;37.132;2023-03-01T08:10:01;0.38;48.58
71396;DHT22;59888;55.814;37.132;2023-03-01T08:12:28;0.24;48.17
71396;DHT22;59888;55.814;37.132;2023-03-01T08:14:54;0.24;48.91
71396;DHT22;59888;55.814;37.132;2023-03-01T08:17:20;0.23;49.54
71396;DHT22;59888;55.814;37.132;2023-03-01T08:19:46;0.32;50.08
71396;DHT22;59888;55.814;37.132;2023-03-01T08:22:12;0.38;49.63
71396;DHT22;59888;55.814;37.132;2023-03-01T08:24:38;0.36;49.46
71396;DHT22;59888;55.814;37.132;2023-03-01T08:27:04;0.40;49.43
71396;DHT22;59888;55.814;37.132;2023-03-01T08:29:33;0.34;48.86
71396;DHT22;59888;55.814;37.132;2023-03-01T08:31:59;0.21;49.75
71396;DHT22;59888;55.814;37.132;2023-03-01T08:34:25;0.15;49.41
71396;DHT22;59888;55.814;37.132;2023-03-01T08:36:51;0.20;49.79
71396;DHT22;59888;55.814;37.132;2023-03-01T08:39:18;0.03;49.17
71396;DHT22;59888;55.814;37.132;2023-03-01T08:41:45;-0.09;49.47
71396;DHT22;59888;55.814;37.132;2023-03-01T08:44:13;-0.03;49.92
71396;DHT22;59888;55.814;37.132;2023-03-01T08:46:41;0.14;50.02
71396;DHT22;59888;55.814;37.132;2023-03-01T08:49:10;0.34;49.41
71396;DHT22;59888;55.814;37.132;2023-03-01T08:51:36;0.36;49.56
71396;DHT22;59888;55.814;37.132;2023-03-01T08:54:14;0.15;49.24
71396;DHT22;59888;55.814;37.132;2023-03-01T08:56:40;0.37;49.76
71396;DHT22;59888;55.814;37.132;2023-03-01T08:59:07;0.38;49.38
71396;DHT22;59888;55.814;37.132;2023-03-01T09:01:33;0.25;49.85
71396;DHT22;59888;55.814;37.132;2023-03-01T09:03:59;0.25;49.72
71396;DHT22;59888;55.814;37.132;2023-03-01T09:06:25;0.22;49.16
71396;DHT22;59888;55.814;37.132;2023-03-01T09:08:51;0.28;48.78
71396;DHT22;59888;55.814;37.132;2023-03-01T09:11:19;0.44;49.53
71396;DHT22;59888;55.814;37.132;2023-03-01T09:13:46;0.57;50.92
71396;DHT22;59888;55.814;37.132;2023-03-01T09:16:14;0.45;49.83
71396;DHT22;59888;55.814;37.132;2023-03-01T09:18:41;0.67;49.74
71396;DHT22;59888;55.814;37.132;2023-03-01T09:21:12;0.68;49.20
71396;DHT22;59888;55.814;37.132;2023-03-01T09:23:41;0.65;49.18
71396;DHT22;59888;55.814;37.132;2023-03-01T09:26:08;0.76;50.01
71396;DHT22;59888;55.814;37.132;2023-03-01T09:28:36;0.75;48.37
71396;DHT22;59888;55.814;37.132;2023-03-01T09:31:03;0.74;47.96
71396;DHT22;59888;55.814;37.132;2023-03-01T09:33:30;0.84;48.79
71396;DHT22;59888;55.814;37.132;2023-03-01T09:36:02;0.90;48.31
71396;DHT22;59888;55.814;37.132;2023-03-01T09:38:29;1.20;47.37
71396;DHT22;59888;55.814;37.132;2023-03-01T09:40:55;1.21;47.88
71396;DHT22;59888;55.814;37.132;2023-03-01T09:43:47;1.10;47.57
71396;DHT22;59888;55.814;37.132;2023-03-01T09:46:16;1.05;47.52
71396;DHT22;59888;55.814;37.132;2023-03-01T09:48:49;0.97;48.05
71396;DHT22;59888;55.814;37.132;2023-03-01T09:51:23;1.05;47.82
71396;DHT22;59888;55.814;37.132;2023-03-01T09:53:50;0.96;46.47
71396;DHT22;59888;55.814;37.132;2023-03-01T09:56:22;0.79;47.77
71396;DHT22;59888;55.814;37.132;2023-03-01T10:01:37;0.82;47.70
71396;DHT22;59888;55.814;37.132;2023-03-01T10:09:32;1.55;45.92
71396;DHT22;59888;55.814;37.132;2023-03-01T10:12:00;1.75;47.57
71396;DHT22;59888;55.814;37.132;2023-03-01T10:17:18;1.49;46.57
71396;DHT22;59888;55.814;37.132;2023-03-01T10:19:46;1.53;46.83
71396;DHT22;59888;55.814;37.132;2023-03-01T10:22:22;1.43;46.67
71396;DHT22;59888;55.814;37.132;2023-03-01T10:24:51;1.53;46.87
71396;DHT22;59888;55.814;37.132;2023-03-01T10:27:28;1.39;46.76
71396;DHT22;59888;55.814;37.132;2023-03-01T10:32:29;1.29;46.32
71396;DHT22;59888;55.814;37.132;2023-03-01T10:34:55;1.39;45.51
71396;DHT22;59888;55.814;37.132;2023-03-01T10:37:22;1.27;45.75
71396;DHT22;59888;55.814;37.132;2023-03-01T10:40:07;1.12;46.60
71396;DHT22;59888;55.814;37.132;2023-03-01T10:42:39;1.04;46.90
71396;DHT22;59888;55.814;37.132;2023-03-01T10:47:45;1.16;46.48
71396;DHT22;59888;55.814;37.132;2023-03-01T10:50:22;1.27;46.24
71396;DHT22;59888;55.814;37.132;2023-03-01T10:53:02;1.28;46.86
71396;DHT22;59888;55.814;37.132;2023-03-01T10:55:39;1.32;46.12
71396;DHT22;59888;55.814;37.132;2023-03-01T11:03:16;1.26;46.44
71396;DHT22;59888;55.814;37.132;2023-03-01T11:06:04;1.39;43.81
71396;DHT22;59888;55.814;37.132;2023-03-01T11:08:41;1.23;45.94
71396;DHT22;59888;55.814;37.132;2023-03-01T11:11:22;1.27;46.72
71396;DHT22;59888;55.814;37.132;2023-03-01T11:13:56;1.42;45.13
71396;DHT22;59888;55.814;37.132;2023-03-01T11:16:28;1.88;45.59
71396;DHT22;59888;55.814;37.132;2023-03-01T11:19:18;1.99;44.15
71396;DHT22;59888;55.814;37.132;2023-03-01T11:22:17;2.15;43.64
71396;DHT22;59888;55.814;37.132;2023-03-01T11:24:47;2.11;42.64
71396;DHT22;59888;55.814;37.132;2023-03-01T11:27:22;1.96;44.46
71396;DHT22;59888;55.814;37.132;2023-03-01T11:29:57;2.08;44.03
71396;DHT22;59888;55.814;37.132;2023-03-01T11:32:27;2.25;44.68
71396;DHT22;59888;55.814;37.132;2023-03-01T11:35:25;2.59;45.77
71396;DHT22;59888;55.814;37.132;2023-03-01T11:40:44;2.21;42.29
71396;DHT22;59888;55.814;37.132;2023-03-01T11:43:15;2.06;42.61
71396;DHT22;59888;55.814;37.132;2023-03-01T11:51:15;1.48;42.00
71396;DHT22;59888;55.814;37.132;2023-03-01T11:59:51;1.36;42.53
71396;DHT22;59888;55.814;37.132;2023-03-01T12:05:07;1.24;41.71
71396;DHT22;59888;55.814;37.132;2023-03-01T12:16:28;1.41;43.63
71396;DHT22;59888;55.814;37.132;2023-03-01T12:24:34;0.73;43.98
71396;DHT22;59888;55.814;37.132;2023-03-01T12:30:43;0.67;44.26
71396;DHT22;59888;55.814;37.132;2023-03-01T12:37:10;0.45;45.57
71396;DHT22;59888;55.814;37.132;2023-03-01T12:49:38;-0.13;46.66
71396;DHT22;59888;55.814;37.132;2023-03-01T12:55:18;-0.12;46.82
71396;DHT22;59888;55.814;37.132;2023-03-01T13:06:24;-0.36;47.20
71396;DHT22;59888;55.814;37.132;2023-03-01T13:09:07;-0.32;47.65
71396;DHT22;59888;55.814;37.132;2023-03-01T13:11:36;-0.20;47.93
71396;DHT22;59888;55.814;37.132;2023-03-01T13:16:46;-0.19;48.54
71396;DHT22;59888;55.814;37.132;2023-03-01T13:19:20;-0.14;48.10
71396;DHT22;59888;55.814;37.132;2023-03-01T13:21:48;-0.14;48.28
71396;DHT22;59888;55.814;37.132;2023-03-01T13:24:27;-0.10;48.47
71396;DHT22;59888;55.814;37.132;2023-03-01T13:34:52;-0.26;48.62
71396;DHT22;59888;55.814;37.132;2023-03-01T13:37:52;-0.30;48.82
71396;DHT22;59888;55.814;37.132;2023-03-01T13:42:48;-0.27;48.70
71396;DHT22;59888;55.814;37.132;2023-03-01T13:47:41;-0.20;48.28
71396;DHT22;59888;55.814;37.132;2023-03-01T13:50:18;-0.26;48.21
71396;DHT22;59888;55.814;37.132;2023-03-01T13:55:23;-0.39;48.50
71396;DHT22;59888;55.814;37.132;2023-03-01T13:57:56;-0.46;47.99
71396;DHT22;59888;55.814;37.132;2023-03-01T14:00:30;-0.53;48.73
71396;DHT22;59888;55.814;37.132;2023-03-01T14:05:32;-0.59;48.67
71396;DHT22;59888;55.814;37.132;2023-03-01T14:07:58;-0.66;49.29
71396;DHT22;59888;55.814;37.132;2023-03-01T14:10:29;-0.74;49.44
71396;DHT22;59888;55.814;37.132;2023-03-01T14:13:35;-0.74;49.79
71396;DHT22;59888;55.814;37.132;2023-03-01T14:19:18;-0.91;50.40
71396;DHT22;59888;55.814;37.132;2023-03-01T14:21:46;-0.94;50.51
71396;DHT22;59888;55.814;37.132;2023-03-01T14:24:21;-0.93;50.88
71396;DHT22;59888;55.814;37.132;2023-03-01T14:26:49;-0.88;50.96
71396;DHT22;59888;55.814;37.132;2023-03-01T14:29:34;-0.95;51.28
71396;DHT22;59888;55.814;37.132;2023-03-01T14:32:20;-1.03;51.43
71396;DHT22;59888;55.814;37.132;2023-03-01T14:34:48;-1.10;52.13
71396;DHT22;59888;55.814;37.132;2023-03-01T14:37:24;-1.15;52.66
71396;DHT22;59888;55.814;37.132;2023-03-01T14:39:51;-1.15;52.96
71396;DHT22;59888;55.814;37.132;2023-03-01T14:42:19;-1.34;54.02
71396;DHT22;59888;55.814;37.132;2023-03-01T14:44:48;-1.31;53.84
71396;DHT22;59888;55.814;37.132;2023-03-01T14:47:32;-1.33;54.46
71396;DHT22;59888;55.814;37.132;2023-03-01T14:50:02;-1.39;55.48
71396;DHT22;59888;55.814;37.132;2023-03-01T14:52:42;-1.42;55.88
71396;DHT22;59888;55.814;37.132;2023-03-01T14:55:20;-1.44;55.78
71396;DHT22;59888;55.814;37.132;2023-03-01T14:57:50;-1.36;54.55
71396;DHT22;59888;55.814;37.132;2023-03-01T15:00:22;-1.40;54.30
71396;DHT22;59888;55.814;37.132;2023-03-01T15:02:51;-1.36;53.68
71396;DHT22;59888;55.814;37.132;2023-03-01T15:05:29;-1.42;52.23
71396;DHT22;59888;55.814;37.132;2023-03-01T15:07:59;-1.41;52.61
71396;DHT22;59888;55.814;37.132;2023-03-01T15:10:30;-1.36;52.09
71396;DHT22;59888;55.814;37.132;2023-03-01T15:13:22;-1.32;51.70
71396;DHT22;59888;55.814;37.132;2023-03-01T15:19:07;-1.36;50.96
71396;DHT22;59888;55.814;37.132;2023-03-01T15:21:39;-1.36;51.32
71396;DHT22;59888;55.814;37.132;2023-03-01T15:24:17;-1.35;51.12
71396;DHT22;59888;55.814;37.132;2023-03-01T15:27:00;-1.29;50.95
71396;DHT22;59888;55.814;37.132;2023-03-01T15:29:33;-1.28;50.54
71396;DHT22;59888;55.814;37.132;2023-03-01T15:32:05;-1.24;50.76
71396;DHT22;59888;55.814;37.132;2023-03-01T15:34:36;-1.26;50.49
71396;DHT22;59888;55.814;37.132;2023-03-01T15:37:33;-1.35;50.81
71396;DHT22;59888;55.814;37.132;2023-03-01T15:39:54;-1.40;51.50
71396;DHT22;59888;55.814;37.132;2023-03-01T15:45:20;-1.38;51.82
71396;DHT22;59888;55.814;37.132;2023-03-01T15:47:58;-1.32;51.98
71396;DHT22;59888;55.814;37.132;2023-03-01T15:50:32;-1.34;51.91
71396;DHT22;59888;55.814;37.132;2023-03-01T15:53:00;-1.30;52.11
71396;DHT22;59888;55.814;37.132;2023-03-01T15:55:33;-1.29;52.11
71396;DHT22;59888;55.814;37.132;2023-03-01T15:58:18;-1.27;52.25
71396;DHT22;59888;55.814;37.132;2023-03-01T16:00:45;-1.33;52.46
71396;DHT22;59888;55.814;37.132;2023-03-01T16:03:11;-1.34;52.52
71396;DHT22;59888;55.814;37.132;2023-03-01T16:05:38;-1.40;52.84
71396;DHT22;59888;55.814;37.132;2023-03-01T16:08:05;-1.40;52.81
71396;DHT22;59888;55.814;37.132;2023-03-01T16:10:33;-1.38;52.77
71396;DHT22;59888;55.814;37.132;2023-03-01T16:12:59;-1.31;52.69
71396;DHT22;59888;55.814;37.132;2023-03-01T16:15:28;-1.27;52.67
71396;DHT22;59888;55.814;37.132;2023-03-01T16:17:54;-1.29;52.68
71396;DHT22;59888;55.814;37.132;2023-03-01T16:20:24;-1.25;52.62
71396;DHT22;59888;55.814;37.132;2023-03-01T16:22:50;-1.26;52.53
71396;DHT22;59888;55.814;37.132;2023-03-01T16:25:19;-1.28;52.65
71396;DHT22;59888;55.814;37.132;2023-03-01T16:27:46;-1.26;52.63
71396;DHT22;59888;55.814;37.132;2023-03-01T16:30:19;-1.18;52.59
71396;DHT22;59888;55.814;37.132;2023-03-01T16:32:46;-1.20;52.62
71396;DHT22;59888;55.814;37.132;2023-03-01T16:35:14;-1.14;52.46
71396;DHT22;59888;55.814;37.132;2023-03-01T16:37:40;-1.19;52.36
71396;DHT22;59888;55.814;37.132;2023-03-01T16:40:20;-1.19;52.47
71396;DHT22;59888;55.814;37.132;2023-03-01T16:42:48;-1.16;52.43
71396;DHT22;59888;55.814;37.132;2023-03-01T16:45:14;-1.15;52.39
71396;DHT22;59888;55.814;37.132;2023-03-01T16:47:39;-1.17;52.09
71396;DHT22;59888;55.814;37.132;2023-03-01T16:50:06;-1.24;52.28
71396;DHT22;59888;55.814;37.132;2023-03-01T16:52:33;-1.26;52.40
71396;DHT22;59888;55.814;37.132;2023-03-01T16:54:59;-1.27;52.63
71396;DHT22;59888;55.814;37.132;2023-03-01T16:57:24;-1.25;52.82
71396;DHT22;59888;55.814;37.132;2023-03-01T16:59:53;-1.19;52.96
71396;DHT22;59888;55.814;37.132;2023-03-01T17:02:20;-1.25;53.33
71396;DHT22;59888;55.814;37.132;2023-03-01T17:04:54;-1.33;54.39
71396;DHT22;59888;55.814;37.132;2023-03-01T17:07:20;-1.36;54.77
71396;DHT22;59888;55.814;37.132;2023-03-01T17:09:46;-1.38;55.34
71396;DHT22;59888;55.814;37.132;2023-03-01T17:12:12;-1.39;55.27
71396;DHT22;59888;55.814;37.132;2023-03-01T17:14:39;-1.41;55.14
71396;DHT22;59888;55.814;37.132;2023-03-01T17:17:10;-1.43;55.71
71396;DHT22;59888;55.814;37.132;2023-03-01T17:19:37;-1.46;55.55
71396;DHT22;59888;55.814;37.132;2023-03-01T17:22:12;-1.41;55.73
71396;DHT22;59888;55.814;37.132;2023-03-01T17:24:43;-1.44;55.94
71396;DHT22;59888;55.814;37.132;2023-03-01T17:27:10;-1.44;56.46
71396;DHT22;59888;55.814;37.132;2023-03-01T17:29:37;-1.43;56.10
71396;DHT22;59888;55.814;37.132;2023-03-01T17:32:04;-1.45;56.74
71396;DHT22;59888;55.814;37.132;2023-03-01T17:34:32;-1.53;56.74
71396;DHT22;59888;55.814;37.132;2023-03-01T17:36:58;-1.53;57.11
71396;DHT22;59888;55.814;37.132;2023-03-01T17:39:25;-1.55;56.76
71396;DHT22;59888;55.814;37.132;2023-03-01T17:41:56;-1.58;57.24
71396;DHT22;59888;55.814;37.132;2023-03-01T17:44:23;-1.53;56.59
71396;DHT22;59888;55.814;37.132;2023-03-01T17:46:48;-1.48;56.24